Time,TemperatureF,DewpointF,PressureIn,WindDirection,WindDirectionDegrees,WindSpeedMPH,WindSpeedGustMPH,Humidity,HourlyPrecipIn,Conditions,Clouds,dailyrainin,SoftwareType,DateUTC
2013-02-23 00:07:00,32.7,31.6,30.24,North,360,0.0,0.0,96,0.00,,-RA,0.00,VWS V14.01,2013-02-23 05:07:00,
2013-02-23 00:08:00,32.7,31.6,30.24,North,360,0.0,0.0,96,0.00,,-RA,0.00,VWS V14.01,2013-02-23 05:08:00,
2013-02-23 00:13:00,32.7,31.6,30.25,North,360,0.0,0.0,96,0.00,,-RA,0.00,VWS V14.01,2013-02-23 05:13:00,
2013-02-23 00:18:00,32.8,31.7,30.24,North,360,0.0,0.0,96,0.00,,-RA,0.00,VWS V14.01,2013-02-23 05:18:00,
2013-02-23 00:23:00,32.8,31.7,30.24,North,360,0.0,0.0,96,0.00,,-RA,0.00,VWS V14.01,2013-02-23 05:23:00,
2013-02-23 00:28:00,32.8,32.0,30.24,North,360,0.0,0.0,97,0.00,,-RA,0.00,VWS V14.01,2013-02-23 05:28:00,
2013-02-23 00:33:00,32.8,32.0,30.23,North,360,0.0,0.0,97,0.00,,-RA,0.00,VWS V14.01,2013-02-23 05:33:00,
2013-02-23 00:38:00,32.7,31.9,30.23,North,360,0.0,0.0,97,0.00,,-RA,0.00,VWS V14.01,2013-02-23 05:38:00,
2013-02-23 00:43:00,32.7,31.9,30.23,North,360,0.0,0.0,97,0.00,,-RA,0.00,VWS V14.01,2013-02-23 05:43:00,
2013-02-23 00:48:00,32.7,31.9,30.23,North,360,0.0,0.0,97,0.00,,-RA,0.00,VWS V14.01,2013-02-23 05:48:00,
2013-02-23 00:53:00,32.8,32.0,30.23,North,360,0.0,0.0,97,0.00,,,0.00,VWS V14.01,2013-02-23 05:53:00,
2013-02-23 00:58:00,32.8,32.0,30.22,North,360,0.0,0.0,97,0.00,,,0.00,VWS V14.01,2013-02-23 05:58:00,
2013-02-23 01:07:00,32.8,32.0,30.21,North,360,0.0,0.0,97,0.00,,,0.00,VWS V14.01,2013-02-23 06:07:00,
2013-02-23 01:13:00,32.9,32.1,30.21,North,360,0.0,0.0,97,0.00,,,0.00,VWS V14.01,2013-02-23 06:13:00,
2013-02-23 01:25:00,33.0,32.2,30.21,North,360,0.0,0.0,97,0.00,,,0.00,VWS V14.01,2013-02-23 06:25:00,
2013-02-23 01:33:00,33.0,32.2,30.21,North,360,0.0,0.0,97,0.00,,,0.00,VWS V14.01,2013-02-23 06:33:00,
2013-02-23 01:38:00,33.0,32.5,30.21,North,360,0.0,0.0,98,0.00,,,0.00,VWS V14.01,2013-02-23 06:38:00,
2013-02-23 01:43:00,33.1,32.6,30.21,North,360,0.0,0.0,98,0.00,,,0.00,VWS V14.01,2013-02-23 06:43:00,
2013-02-23 01:48:00,33.0,32.5,30.21,North,360,0.0,0.0,98,0.00,,,0.00,VWS V14.01,2013-02-23 06:48:00,
2013-02-23 01:53:00,32.9,32.4,30.20,North,360,0.0,0.0,98,0.00,,,0.00,VWS V14.01,2013-02-23 06:53:00,
2013-02-23 01:58:00,32.9,32.4,30.20,North,360,0.0,0.0,98,0.00,,,0.00,VWS V14.01,2013-02-23 06:58:00,
2013-02-23 02:07:00,32.8,32.3,30.20,North,360,0.0,0.0,98,0.00,,,0.00,VWS V14.01,2013-02-23 07:07:00,
2013-02-23 02:13:00,32.8,32.3,30.20,North,360,0.0,0.0,98,0.00,,,0.00,VWS V14.01,2013-02-23 07:13:00,
2013-02-23 02:18:00,32.8,32.3,30.20,North,360,0.0,0.0,98,0.00,,,0.00,VWS V14.01,2013-02-23 07:18:00,
2013-02-23 02:23:00,32.8,32.3,30.20,North,360,0.0,0.0,98,0.00,,,0.00,VWS V14.01,2013-02-23 07:23:00,
2013-02-23 02:28:00,32.8,32.3,30.19,North,360,0.0,0.0,98,0.00,,,0.00,VWS V14.01,2013-02-23 07:28:00,
2013-02-23 02:33:00,32.8,32.3,30.19,North,360,0.0,0.0,98,0.00,,,0.00,VWS V14.01,2013-02-23 07:33:00,
2013-02-23 02:38:00,32.8,32.3,30.19,North,360,0.0,0.0,98,0.00,,,0.00,VWS V14.01,2013-02-23 07:38:00,
2013-02-23 02:43:00,32.8,32.3,30.19,North,360,0.0,0.0,98,0.00,,,0.00,VWS V14.01,2013-02-23 07:43:00,
2013-02-23 02:53:00,32.8,32.3,30.18,North,360,0.0,0.0,98,0.00,,,0.00,VWS V14.01,2013-02-23 07:53:00,
2013-02-23 02:58:00,32.8,32.3,30.18,North,360,0.0,0.0,98,0.00,,,0.00,VWS V14.01,2013-02-23 07:58:00,
2013-02-23 03:07:00,32.9,32.4,30.18,North,360,0.0,0.0,98,0.00,,,0.00,VWS V14.01,2013-02-23 08:07:00,
2013-02-23 03:13:00,32.9,32.4,30.18,North,360,0.0,0.0,98,0.00,,,0.00,VWS V14.01,2013-02-23 08:13:00,
2013-02-23 03:18:00,32.9,32.4,30.17,North,360,0.0,0.0,98,0.00,,,0.00,VWS V14.01,2013-02-23 08:18:00,
2013-02-23 03:23:00,33.0,32.5,30.17,North,360,0.0,0.0,98,0.00,,,0.00,VWS V14.01,2013-02-23 08:23:00,
2013-02-23 03:28:00,33.0,32.5,30.17,North,360,0.0,0.0,98,0.00,,,0.00,VWS V14.01,2013-02-23 08:28:00,
2013-02-23 03:33:00,33.0,32.5,30.17,North,360,0.0,0.0,98,0.00,,,0.00,VWS V14.01,2013-02-23 08:33:00,
2013-02-23 03:38:00,33.0,32.5,30.16,North,360,0.0,0.0,98,0.00,,,0.00,VWS V14.01,2013-02-23 08:38:00,
2013-02-23 03:43:00,33.0,32.5,30.15,North,360,0.0,0.0,98,0.00,,,0.00,VWS V14.01,2013-02-23 08:43:00,
2013-02-23 03:48:00,33.1,32.6,30.14,North,360,0.0,0.0,98,0.00,,,0.00,VWS V14.01,2013-02-23 08:48:00,
2013-02-23 03:53:00,33.0,32.5,30.13,North,360,0.0,0.0,98,0.00,,,0.00,VWS V14.01,2013-02-23 08:53:00,
2013-02-23 03:58:00,33.0,32.5,30.14,North,360,0.0,0.0,98,0.00,,,0.00,VWS V14.01,2013-02-23 08:58:00,
2013-02-23 04:07:00,33.1,32.6,30.14,North,360,0.0,0.0,98,0.00,,,0.00,VWS V14.01,2013-02-23 09:07:00,
2013-02-23 04:13:00,33.1,32.6,30.14,North,360,0.0,0.0,98,0.00,,,0.00,VWS V14.01,2013-02-23 09:13:00,
2013-02-23 04:18:00,33.1,32.6,30.14,North,360,0.0,0.0,98,0.00,,,0.00,VWS V14.01,2013-02-23 09:18:00,
2013-02-23 04:23:00,33.2,32.7,30.13,North,360,0.0,0.0,98,0.00,,,0.00,VWS V14.01,2013-02-23 09:23:00,
2013-02-23 04:28:00,33.1,32.6,30.13,North,360,0.0,0.0,98,0.00,,,0.00,VWS V14.01,2013-02-23 09:28:00,
2013-02-23 04:33:00,33.0,32.5,30.13,North,360,0.0,0.0,98,0.00,,,0.00,VWS V14.01,2013-02-23 09:33:00,
2013-02-23 04:38:00,33.1,32.8,30.12,North,360,0.0,0.0,99,0.00,,,0.00,VWS V14.01,2013-02-23 09:38:00,
2013-02-23 04:43:00,33.1,32.8,30.12,North,360,0.0,0.0,99,0.00,,,0.00,VWS V14.01,2013-02-23 09:43:00,
2013-02-23 04:48:00,33.1,32.8,30.13,North,360,0.0,0.0,99,0.00,,,0.00,VWS V14.01,2013-02-23 09:48:00,
2013-02-23 04:53:00,33.1,32.8,30.12,North,360,0.0,0.0,99,0.00,,,0.00,VWS V14.01,2013-02-23 09:53:00,
2013-02-23 05:07:00,33.1,32.8,30.13,North,360,0.0,0.0,99,0.00,,,0.00,VWS V14.01,2013-02-23 10:07:00,
2013-02-23 05:13:00,33.2,32.9,30.13,North,360,0.0,0.0,99,0.00,,,0.00,VWS V14.01,2013-02-23 10:13:00,
2013-02-23 05:18:00,33.3,32.8,30.14,North,360,0.0,0.0,98,0.00,,,0.00,VWS V14.01,2013-02-23 10:18:00,
2013-02-23 05:25:00,33.4,32.9,30.14,North,360,0.0,0.0,98,0.00,,,0.00,VWS V14.01,2013-02-23 10:25:00,
2013-02-23 05:33:00,33.6,33.3,30.14,North,360,0.0,0.0,99,0.00,,,0.00,VWS V14.01,2013-02-23 10:33:00,
2013-02-23 05:38:00,33.5,33.0,30.13,North,360,0.0,0.0,98,0.00,,,0.00,VWS V14.01,2013-02-23 10:38:00,
2013-02-23 05:43:00,33.6,33.3,30.13,North,360,0.0,0.0,99,0.00,,,0.00,VWS V14.01,2013-02-23 10:43:00,
2013-02-23 05:48:00,33.6,33.3,30.13,North,360,0.0,0.0,99,0.00,,,0.00,VWS V14.01,2013-02-23 10:48:00,
2013-02-23 05:53:00,33.7,33.4,30.12,North,360,0.0,0.0,99,0.00,,,0.00,VWS V14.01,2013-02-23 10:53:00,
2013-02-23 05:58:00,33.7,33.4,30.10,North,360,0.0,0.0,99,0.00,,,0.00,VWS V14.01,2013-02-23 10:58:00,
2013-02-23 06:07:00,33.7,33.4,30.10,North,360,0.0,0.0,99,0.00,,,0.00,VWS V14.01,2013-02-23 11:07:00,
2013-02-23 06:13:00,33.6,33.3,30.10,North,360,0.0,0.0,99,0.00,,,0.00,VWS V14.01,2013-02-23 11:13:00,
2013-02-23 06:18:00,33.6,33.3,30.10,North,360,0.0,0.0,99,0.00,,,0.00,VWS V14.01,2013-02-23 11:18:00,
2013-02-23 06:28:00,33.7,33.4,30.10,North,360,0.0,0.0,99,0.00,,,0.00,VWS V14.01,2013-02-23 11:28:00,
2013-02-23 06:33:00,33.7,33.4,30.08,North,360,0.0,0.0,99,0.00,,,0.00,VWS V14.01,2013-02-23 11:33:00,
2013-02-23 06:38:00,33.7,33.4,30.09,North,360,0.0,0.0,99,0.00,,,0.00,VWS V14.01,2013-02-23 11:38:00,
2013-02-23 06:43:00,33.8,33.5,30.09,North,360,0.0,0.0,99,0.00,,,0.00,VWS V14.01,2013-02-23 11:43:00,
2013-02-23 06:48:00,33.8,33.5,30.08,North,360,0.0,0.0,99,0.00,,,0.00,VWS V14.01,2013-02-23 11:48:00,
2013-02-23 06:53:00,33.9,33.6,30.08,North,360,0.0,0.0,99,0.00,,,0.00,VWS V14.01,2013-02-23 11:53:00,
2013-02-23 06:58:00,33.9,33.6,30.09,North,360,0.0,0.0,99,0.00,,,0.00,VWS V14.01,2013-02-23 11:58:00,
2013-02-23 07:07:00,34.0,33.7,30.09,North,360,0.0,0.0,99,0.00,,,0.00,VWS V14.01,2013-02-23 12:07:00,
2013-02-23 07:13:00,34.1,33.8,30.10,North,360,0.0,0.0,99,0.00,,,0.00,VWS V14.01,2013-02-23 12:13:00,
2013-02-23 07:18:00,34.2,33.9,30.11,North,360,0.0,0.0,99,0.00,,,0.00,VWS V14.01,2013-02-23 12:18:00,
2013-02-23 07:23:00,34.4,34.1,30.11,North,360,0.0,0.0,99,0.00,,,0.00,VWS V14.01,2013-02-23 12:23:00,
2013-02-23 07:33:00,34.5,34.2,30.10,North,360,0.0,0.0,99,0.00,,,0.00,VWS V14.01,2013-02-23 12:33:00,
2013-02-23 07:38:00,34.6,34.3,30.09,North,360,0.0,0.0,99,0.00,,,0.00,VWS V14.01,2013-02-23 12:38:00,
2013-02-23 07:43:00,34.6,34.3,30.10,North,360,0.0,0.0,99,0.00,,,0.00,VWS V14.01,2013-02-23 12:43:00,
2013-02-23 07:48:00,34.6,34.3,30.10,North,360,0.0,0.0,99,0.00,,,0.00,VWS V14.01,2013-02-23 12:48:00,
2013-02-23 07:53:00,34.6,34.3,30.10,North,360,0.0,0.0,99,0.00,,,0.00,VWS V14.01,2013-02-23 12:53:00,
2013-02-23 07:58:00,34.7,34.4,30.10,North,360,0.0,0.0,99,0.00,,,0.00,VWS V14.01,2013-02-23 12:58:00,
2013-02-23 08:07:00,34.7,34.4,30.09,North,360,0.0,0.0,99,0.00,,,0.00,VWS V14.01,2013-02-23 13:07:00,
2013-02-23 08:13:00,34.7,34.4,30.09,North,360,0.0,0.0,99,0.00,,,0.00,VWS V14.01,2013-02-23 13:13:00,
2013-02-23 08:18:00,34.8,34.5,30.08,North,360,0.0,0.0,99,0.00,,,0.00,VWS V14.01,2013-02-23 13:18:00,
2013-02-23 08:23:00,34.8,34.5,30.08,North,360,0.0,0.0,99,0.00,,,0.00,VWS V14.01,2013-02-23 13:23:00,
2013-02-23 08:28:00,34.9,34.6,30.08,North,360,0.0,0.0,99,0.00,,,0.00,VWS V14.01,2013-02-23 13:28:00,
2013-02-23 08:38:00,35.0,34.7,30.07,North,360,0.0,0.0,99,0.00,,,0.00,VWS V14.01,2013-02-23 13:38:00,
2013-02-23 08:43:00,35.1,34.8,30.07,North,360,0.0,0.0,99,0.00,,,0.00,VWS V14.01,2013-02-23 13:43:00,
2013-02-23 08:48:00,35.3,35.0,30.07,North,360,0.0,0.0,99,0.00,,,0.00,VWS V14.01,2013-02-23 13:48:00,
2013-02-23 08:53:00,35.3,35.0,30.07,North,360,0.0,0.0,99,0.00,,,0.00,VWS V14.01,2013-02-23 13:53:00,
2013-02-23 09:07:00,35.3,35.0,30.06,North,360,0.0,0.0,99,0.00,,,0.00,VWS V14.01,2013-02-23 14:07:00,
2013-02-23 09:13:00,35.5,35.2,30.06,North,360,0.0,0.0,99,0.00,,,0.00,VWS V14.01,2013-02-23 14:13:00,
2013-02-23 09:18:00,35.5,35.2,30.06,North,360,0.0,0.0,99,0.00,,,0.00,VWS V14.01,2013-02-23 14:18:00,
2013-02-23 09:23:00,35.5,35.2,30.05,North,360,0.0,0.0,99,0.00,,,0.00,VWS V14.01,2013-02-23 14:23:00,
2013-02-23 09:28:00,35.6,35.3,30.04,North,360,0.0,0.0,99,0.00,,,0.00,VWS V14.01,2013-02-23 14:28:00,
2013-02-23 09:33:00,35.8,35.5,30.04,North,360,0.0,0.0,99,0.00,,,0.00,VWS V14.01,2013-02-23 14:33:00,
2013-02-23 09:43:00,35.9,35.6,30.03,North,360,0.0,0.0,99,0.00,,,0.00,VWS V14.01,2013-02-23 14:43:00,
2013-02-23 09:48:00,36.0,35.7,30.02,North,360,0.0,0.0,99,0.00,,,0.00,VWS V14.01,2013-02-23 14:48:00,
2013-02-23 09:53:00,36.1,35.8,30.03,North,360,0.0,0.0,99,0.00,,,0.00,VWS V14.01,2013-02-23 14:53:00,
2013-02-23 09:58:00,36.2,35.9,30.02,North,360,0.0,0.0,99,0.00,,,0.00,VWS V14.01,2013-02-23 14:58:00,
2013-02-23 10:07:00,36.3,36.0,30.02,North,360,0.0,0.0,99,0.00,,,0.00,VWS V14.01,2013-02-23 15:07:00,
2013-02-23 10:13:00,36.5,36.2,30.01,North,360,0.0,0.0,99,0.00,,,0.00,VWS V14.01,2013-02-23 15:13:00,
2013-02-23 10:18:00,36.6,36.3,30.02,North,360,0.0,0.0,99,0.00,,,0.00,VWS V14.01,2013-02-23 15:18:00,
2013-02-23 10:25:00,36.7,36.4,30.02,North,360,0.0,0.0,99,0.00,,,0.00,VWS V14.01,2013-02-23 15:25:00,
2013-02-23 10:33:00,37.0,36.7,30.02,North,360,0.0,0.0,99,0.00,,,0.00,VWS V14.01,2013-02-23 15:33:00,
2013-02-23 10:38:00,37.1,36.8,30.01,North,360,0.0,0.0,99,0.00,,,0.00,VWS V14.01,2013-02-23 15:38:00,
2013-02-23 10:43:00,37.2,36.9,30.01,North,360,0.0,0.0,99,0.00,,,0.00,VWS V14.01,2013-02-23 15:43:00,
2013-02-23 10:48:00,37.4,37.1,30.00,North,360,0.0,0.0,99,0.00,,,0.00,VWS V14.01,2013-02-23 15:48:00,
2013-02-23 10:53:00,37.4,37.1,30.00,North,360,0.0,0.0,99,0.00,,,0.00,VWS V14.01,2013-02-23 15:53:00,
2013-02-23 10:58:00,37.7,37.4,30.00,North,360,0.0,0.0,99,0.00,,,0.00,VWS V14.01,2013-02-23 15:58:00,
2013-02-23 11:07:00,37.8,37.5,30.00,North,360,0.0,0.0,99,0.00,,,0.00,VWS V14.01,2013-02-23 16:07:00,
2013-02-23 11:13:00,38.1,37.8,29.99,North,360,0.0,0.0,99,0.00,,,0.00,VWS V14.01,2013-02-23 16:13:00,
2013-02-23 11:23:00,38.3,38.0,29.99,North,360,0.0,0.0,99,0.00,,,0.00,VWS V14.01,2013-02-23 16:23:00,
2013-02-23 11:28:00,38.3,38.0,29.98,North,360,0.0,0.0,99,0.00,,,0.00,VWS V14.01,2013-02-23 16:28:00,
2013-02-23 11:38:00,38.2,37.9,29.98,North,360,0.0,0.0,99,0.00,,,0.00,VWS V14.01,2013-02-23 16:38:00,
2013-02-23 11:43:00,38.3,38.0,29.98,North,360,0.0,0.0,99,0.00,,,0.00,VWS V14.01,2013-02-23 16:43:00,
2013-02-23 11:48:00,38.3,38.0,29.98,North,360,0.0,0.0,99,0.00,,,0.00,VWS V14.01,2013-02-23 16:48:00,
2013-02-23 11:53:00,38.4,38.1,29.99,North,360,0.0,0.0,99,0.00,,,0.00,VWS V14.01,2013-02-23 16:53:00,
2013-02-23 11:58:00,38.4,38.1,29.98,North,360,0.0,0.0,99,0.00,,,0.00,VWS V14.01,2013-02-23 16:58:00,
2013-02-23 12:07:00,38.3,38.0,29.98,North,360,0.0,0.0,99,0.00,,,0.00,VWS V14.01,2013-02-23 17:07:00,
2013-02-23 12:13:00,38.5,38.2,29.98,North,360,0.0,0.0,99,0.00,,,0.00,VWS V14.01,2013-02-23 17:13:00,
2013-02-23 12:18:00,38.6,38.3,29.98,North,360,0.0,0.0,99,0.00,,,0.00,VWS V14.01,2013-02-23 17:18:00,
2013-02-23 12:23:00,38.7,38.4,29.97,North,360,0.0,0.0,99,0.00,,,0.00,VWS V14.01,2013-02-23 17:23:00,
2013-02-23 12:28:00,38.7,38.4,29.97,North,360,0.0,0.0,99,0.00,,,0.00,VWS V14.01,2013-02-23 17:28:00,
2013-02-23 12:33:00,38.8,38.5,29.97,North,360,0.0,0.0,99,0.00,,,0.00,VWS V14.01,2013-02-23 17:33:00,
2013-02-23 12:38:00,39.0,38.7,29.96,North,360,0.0,0.0,99,0.00,,,0.00,VWS V14.01,2013-02-23 17:38:00,
2013-02-23 12:43:00,39.0,38.7,29.96,North,360,0.0,0.0,99,0.00,,,0.00,VWS V14.01,2013-02-23 17:43:00,
2013-02-23 12:48:00,39.1,38.8,29.95,North,360,0.0,0.0,99,0.00,,,0.00,VWS V14.01,2013-02-23 17:48:00,
2013-02-23 12:53:00,39.2,38.9,29.96,North,360,0.0,0.0,99,0.00,,,0.00,VWS V14.01,2013-02-23 17:53:00,
2013-02-23 12:58:00,39.3,39.0,29.96,North,360,0.0,0.0,99,0.00,,-RA,0.00,VWS V14.01,2013-02-23 17:58:00,
2013-02-23 13:07:00,39.4,39.1,29.96,North,360,0.0,0.0,99,0.00,,-RA,0.00,VWS V14.01,2013-02-23 18:07:00,
2013-02-23 13:13:00,39.7,39.4,29.96,North,360,0.0,0.0,99,0.00,,-RA,0.00,VWS V14.01,2013-02-23 18:13:00,
2013-02-23 13:18:00,39.6,39.3,29.96,North,360,0.0,0.0,99,0.00,,-RA,0.00,VWS V14.01,2013-02-23 18:18:00,
2013-02-23 13:23:00,39.6,39.3,29.96,North,360,0.0,0.0,99,0.00,,-RA,0.00,VWS V14.01,2013-02-23 18:23:00,
2013-02-23 13:28:00,39.8,39.5,29.95,North,360,0.0,0.0,99,0.00,,-RA,0.00,VWS V14.01,2013-02-23 18:28:00,
2013-02-23 13:38:00,39.9,39.6,29.95,North,360,0.0,0.0,99,0.00,,-RA,0.00,VWS V14.01,2013-02-23 18:38:00,
2013-02-23 13:43:00,39.9,39.6,29.95,North,360,0.0,0.0,99,0.00,,-RA,0.00,VWS V14.01,2013-02-23 18:43:00,
2013-02-23 13:48:00,40.1,39.8,29.94,North,360,0.0,0.0,99,0.00,,-RA,0.00,VWS V14.01,2013-02-23 18:48:00,
2013-02-23 13:53:00,40.2,39.9,29.94,North,360,0.0,0.0,99,0.00,,-RA,0.00,VWS V14.01,2013-02-23 18:53:00,
2013-02-23 13:58:00,40.4,40.1,29.93,North,360,0.0,0.0,99,0.00,,,0.00,VWS V14.01,2013-02-23 18:58:00,
2013-02-23 14:07:00,40.6,40.3,29.93,North,360,0.0,0.0,99,0.00,,,0.00,VWS V14.01,2013-02-23 19:07:00,
2013-02-23 14:13:00,40.9,40.6,29.93,North,360,0.0,0.0,99,0.00,,,0.00,VWS V14.01,2013-02-23 19:13:00,
2013-02-23 14:18:00,40.9,40.6,29.93,North,360,0.0,0.0,99,0.00,,,0.00,VWS V14.01,2013-02-23 19:18:00,
2013-02-23 14:28:00,41.2,40.9,29.92,North,360,0.0,0.0,99,0.00,,,0.00,VWS V14.01,2013-02-23 19:28:00,
2013-02-23 14:33:00,41.4,41.1,29.92,North,360,0.0,0.0,99,0.00,,,0.00,VWS V14.01,2013-02-23 19:33:00,
2013-02-23 14:38:00,41.6,41.3,29.92,North,360,0.0,0.0,99,0.00,,,0.00,VWS V14.01,2013-02-23 19:38:00,
2013-02-23 14:43:00,41.7,41.4,29.91,North,360,0.0,0.0,99,0.00,,,0.00,VWS V14.01,2013-02-23 19:43:00,
2013-02-23 14:53:00,42.0,41.7,29.92,North,360,0.0,0.0,99,0.00,,,0.00,VWS V14.01,2013-02-23 19:53:00,
2013-02-23 14:58:00,42.1,41.8,29.92,North,360,0.0,0.0,99,0.00,,,0.00,VWS V14.01,2013-02-23 19:58:00,
2013-02-23 15:07:00,42.4,42.1,29.91,North,360,0.0,0.0,99,0.00,,,0.00,VWS V14.01,2013-02-23 20:07:00,
2013-02-23 15:13:00,42.7,42.4,29.91,North,360,0.0,0.0,99,0.00,,,0.00,VWS V14.01,2013-02-23 20:13:00,
2013-02-23 15:18:00,42.8,42.5,29.91,North,360,0.0,0.0,99,0.00,,,0.00,VWS V14.01,2013-02-23 20:18:00,
2013-02-23 15:28:00,42.9,42.6,29.90,North,360,0.0,0.0,99,0.00,,,0.00,VWS V14.01,2013-02-23 20:28:00,
2013-02-23 15:33:00,43.0,42.7,29.90,North,360,0.0,0.0,99,0.00,,,0.00,VWS V14.01,2013-02-23 20:33:00,
2013-02-23 15:38:00,43.0,42.7,29.90,North,360,0.0,0.0,99,0.00,,,0.00,VWS V14.01,2013-02-23 20:38:00,
2013-02-23 15:43:00,43.0,42.7,29.90,North,360,0.0,0.0,99,0.00,,,0.00,VWS V14.01,2013-02-23 20:43:00,
2013-02-23 15:48:00,43.1,42.8,29.90,North,360,0.0,0.0,99,0.00,,,0.00,VWS V14.01,2013-02-23 20:48:00,
2013-02-23 15:58:00,43.4,43.1,29.90,North,360,0.0,0.0,99,0.00,,OVC006,0.00,VWS V14.01,2013-02-23 20:58:00,
2013-02-23 16:07:00,43.5,43.2,29.89,North,360,0.0,0.0,99,0.00,,OVC006,0.00,VWS V14.01,2013-02-23 21:07:00,
2013-02-23 16:13:00,43.5,43.2,29.89,North,360,0.0,0.0,99,0.00,,OVC006,0.00,VWS V14.01,2013-02-23 21:13:00,
2013-02-23 16:18:00,43.5,42.9,29.89,North,360,0.0,0.0,98,0.00,,OVC006,0.00,VWS V14.01,2013-02-23 21:18:00,
2013-02-23 16:28:00,43.6,43.0,29.89,North,360,0.0,0.0,98,0.00,,OVC006,0.00,VWS V14.01,2013-02-23 21:28:00,
2013-02-23 16:33:00,43.6,43.0,29.88,North,360,0.0,0.0,98,0.00,,OVC006,0.00,VWS V14.01,2013-02-23 21:33:00,
2013-02-23 16:38:00,43.7,43.1,29.88,North,360,0.0,0.0,98,0.00,,OVC006,0.00,VWS V14.01,2013-02-23 21:38:00,
2013-02-23 16:43:00,43.7,43.1,29.88,North,360,0.0,0.0,98,0.00,,OVC006,0.00,VWS V14.01,2013-02-23 21:43:00,
2013-02-23 16:48:00,43.6,43.0,29.89,North,360,0.0,0.0,98,0.00,,OVC006,0.00,VWS V14.01,2013-02-23 21:48:00,
2013-02-23 16:53:00,43.7,43.1,29.88,North,360,0.0,0.0,98,0.00,,OVC006,0.00,VWS V14.01,2013-02-23 21:53:00,
2013-02-23 17:07:00,43.6,43.0,29.88,North,360,0.0,0.0,98,0.00,,OVC006,0.00,VWS V14.01,2013-02-23 22:07:00,
2013-02-23 17:13:00,43.6,43.0,29.88,North,360,0.0,0.0,98,0.00,,OVC006,0.00,VWS V14.01,2013-02-23 22:13:00,
2013-02-23 17:18:00,43.6,43.0,29.88,North,360,0.0,0.0,98,0.00,,OVC006,0.00,VWS V14.01,2013-02-23 22:18:00,
2013-02-23 17:23:00,43.5,42.9,29.88,North,360,0.0,0.0,98,0.00,,OVC006,0.00,VWS V14.01,2013-02-23 22:23:00,
2013-02-23 17:28:00,43.5,42.9,29.88,North,360,0.0,0.0,98,0.00,,OVC006,0.00,VWS V14.01,2013-02-23 22:28:00,
2013-02-23 17:33:00,43.6,43.0,29.88,North,360,0.0,0.0,98,0.00,,OVC006,0.00,VWS V14.01,2013-02-23 22:33:00,
2013-02-23 17:43:00,43.7,43.1,29.88,North,360,0.0,0.0,98,0.00,,OVC006,0.00,VWS V14.01,2013-02-23 22:43:00,
2013-02-23 17:48:00,43.7,43.1,29.88,North,360,0.0,0.0,98,0.00,,OVC006,0.00,VWS V14.01,2013-02-23 22:48:00,
2013-02-23 17:58:00,43.5,42.9,29.88,North,360,0.0,0.0,98,0.00,,OVC008,0.00,VWS V14.01,2013-02-23 22:58:00,
2013-02-23 18:07:00,43.6,43.0,29.88,North,360,0.0,0.0,98,0.00,,OVC008,0.00,VWS V14.01,2013-02-23 23:07:00,
2013-02-23 18:13:00,43.9,43.3,29.88,North,360,0.0,0.0,98,0.00,,OVC008,0.00,VWS V14.01,2013-02-23 23:13:00,
2013-02-23 18:18:00,44.0,43.4,29.88,North,360,0.0,0.0,98,0.00,,OVC008,0.00,VWS V14.01,2013-02-23 23:18:00,
2013-02-23 18:23:00,44.0,43.4,29.88,North,360,0.0,0.0,98,0.00,,OVC008,0.00,VWS V14.01,2013-02-23 23:23:00,
2013-02-23 18:33:00,44.1,43.5,29.88,North,360,0.0,0.0,98,0.00,,OVC008,0.00,VWS V14.01,2013-02-23 23:33:00,
2013-02-23 18:38:00,44.1,43.5,29.88,North,360,0.0,0.0,98,0.00,,OVC008,0.00,VWS V14.01,2013-02-23 23:38:00,
2013-02-23 18:43:00,44.2,43.6,29.88,North,360,0.0,0.0,98,0.00,,OVC008,0.00,VWS V14.01,2013-02-23 23:43:00,
2013-02-23 18:53:00,44.1,43.5,29.88,North,360,0.0,0.0,98,0.00,,OVC008,0.00,VWS V14.01,2013-02-23 23:53:00,
2013-02-23 18:58:00,44.1,43.5,29.88,North,360,0.0,0.0,98,0.00,,OVC008,0.00,VWS V14.01,2013-02-23 23:58:00,
2013-02-23 19:07:00,43.9,43.3,29.88,North,360,0.0,0.0,98,0.00,,OVC008,0.00,VWS V14.01,2013-02-24 00:07:00,
2013-02-23 19:13:00,43.7,43.1,29.87,North,360,0.0,0.0,98,0.00,,OVC008,0.00,VWS V14.01,2013-02-24 00:13:00,
2013-02-23 19:18:00,43.7,43.1,29.87,North,360,0.0,0.0,98,0.00,,OVC008,0.00,VWS V14.01,2013-02-24 00:18:00,
2013-02-23 19:23:00,43.6,43.0,29.87,North,360,0.0,0.0,98,0.00,,OVC008,0.00,VWS V14.01,2013-02-24 00:23:00,
2013-02-23 19:28:00,43.6,43.0,29.86,North,360,0.0,0.0,98,0.00,,OVC008,0.00,VWS V14.01,2013-02-24 00:28:00,
2013-02-23 19:38:00,43.5,42.9,29.86,North,360,0.0,0.0,98,0.00,,OVC008,0.00,VWS V14.01,2013-02-24 00:38:00,
2013-02-23 19:43:00,43.7,43.1,29.86,North,360,0.0,0.0,98,0.00,,OVC008,0.00,VWS V14.01,2013-02-24 00:43:00,
2013-02-23 19:53:00,43.8,43.2,29.86,North,360,0.0,0.0,98,0.00,,OVC008,0.00,VWS V14.01,2013-02-24 00:53:00,
2013-02-23 19:58:00,43.9,43.3,29.87,North,360,0.0,0.0,98,0.00,,OVC008,0.00,VWS V14.01,2013-02-24 00:58:00,
2013-02-23 20:07:00,43.9,43.3,29.86,North,360,0.0,0.0,98,0.00,,OVC008,0.00,VWS V14.01,2013-02-24 01:07:00,
2013-02-23 20:13:00,43.9,43.3,29.86,North,360,0.0,0.0,98,0.00,,OVC008,0.00,VWS V14.01,2013-02-24 01:13:00,
2013-02-23 20:18:00,43.9,43.3,29.86,North,360,0.0,0.0,98,0.00,,OVC008,0.00,VWS V14.01,2013-02-24 01:18:00,
2013-02-23 20:23:00,43.9,43.3,29.86,North,360,0.0,0.0,98,0.00,,OVC008,0.00,VWS V14.01,2013-02-24 01:23:00,
2013-02-23 20:33:00,43.8,43.2,29.86,North,360,0.0,0.0,98,0.00,,OVC008,0.00,VWS V14.01,2013-02-24 01:33:00,
2013-02-23 20:38:00,43.7,43.1,29.86,North,360,0.0,0.0,98,0.00,,OVC008,0.00,VWS V14.01,2013-02-24 01:38:00,
2013-02-23 20:43:00,43.7,43.1,29.86,North,360,0.0,0.0,98,0.00,,OVC008,0.00,VWS V14.01,2013-02-24 01:43:00,
2013-02-23 20:48:00,43.7,43.1,29.86,North,360,0.0,0.0,98,0.00,,OVC008,0.00,VWS V14.01,2013-02-24 01:48:00,
2013-02-23 20:53:00,43.7,43.1,29.86,North,360,0.0,0.0,98,0.00,,OVC008,0.00,VWS V14.01,2013-02-24 01:53:00,
2013-02-23 20:58:00,43.7,43.1,29.86,North,360,0.0,0.0,98,0.00,,OVC008,0.00,VWS V14.01,2013-02-24 01:58:00,
2013-02-23 21:07:00,43.7,43.1,29.85,North,360,0.0,0.0,98,0.00,,OVC008,0.00,VWS V14.01,2013-02-24 02:07:00,
2013-02-23 21:13:00,43.7,43.1,29.85,North,360,0.0,0.0,98,0.00,,OVC008,0.00,VWS V14.01,2013-02-24 02:13:00,
2013-02-23 21:23:00,43.7,43.1,29.85,North,360,0.0,0.0,98,0.00,,OVC008,0.00,VWS V14.01,2013-02-24 02:23:00,
2013-02-23 21:28:00,43.6,43.0,29.85,North,360,0.0,0.0,98,0.00,,OVC008,0.00,VWS V14.01,2013-02-24 02:28:00,
2013-02-23 21:33:00,43.6,43.0,29.85,North,360,0.0,0.0,98,0.00,,OVC008,0.00,VWS V14.01,2013-02-24 02:33:00,
2013-02-23 21:43:00,43.6,43.0,29.85,North,360,0.0,0.0,98,0.00,,OVC008,0.00,VWS V14.01,2013-02-24 02:43:00,
2013-02-23 21:48:00,43.7,43.1,29.84,North,360,0.0,0.0,98,0.00,,OVC008,0.00,VWS V14.01,2013-02-24 02:48:00,
2013-02-23 21:53:00,43.7,43.1,29.84,North,360,0.0,0.0,98,0.00,,OVC008,0.00,VWS V14.01,2013-02-24 02:53:00,
2013-02-23 21:58:00,43.7,43.1,29.85,North,360,0.0,0.0,98,0.00,,OVC008,0.00,VWS V14.01,2013-02-24 02:58:00,
2013-02-23 22:07:00,43.7,42.8,29.84,North,360,0.0,0.0,97,0.00,,OVC008,0.00,VWS V14.01,2013-02-24 03:07:00,
2013-02-23 22:13:00,43.7,42.8,29.84,North,360,0.0,0.0,97,0.00,,OVC008,0.00,VWS V14.01,2013-02-24 03:13:00,
2013-02-23 22:18:00,43.7,42.8,29.84,North,360,0.0,0.0,97,0.00,,OVC008,0.00,VWS V14.01,2013-02-24 03:18:00,
2013-02-23 22:23:00,43.8,42.9,29.84,North,360,0.0,0.0,97,0.00,,OVC008,0.00,VWS V14.01,2013-02-24 03:23:00,
2013-02-23 22:33:00,43.9,43.0,29.84,North,360,0.0,0.0,97,0.00,,OVC008,0.00,VWS V14.01,2013-02-24 03:33:00,
2013-02-23 22:38:00,44.0,43.1,29.84,North,360,0.0,0.0,97,0.00,,OVC008,0.00,VWS V14.01,2013-02-24 03:38:00,
2013-02-23 22:43:00,44.1,43.2,29.84,North,360,0.0,0.0,97,0.00,,OVC008,0.00,VWS V14.01,2013-02-24 03:43:00,
2013-02-23 22:53:00,44.2,43.0,29.84,North,360,0.0,0.0,96,0.00,,OVC008,0.00,VWS V14.01,2013-02-24 03:53:00,
2013-02-23 22:58:00,44.1,43.0,29.83,North,360,0.0,0.0,96,0.00,,OVC008,0.00,VWS V14.01,2013-02-24 03:58:00,
2013-02-23 23:07:00,44.1,43.0,29.83,North,360,0.0,0.0,96,0.00,,OVC008,0.00,VWS V14.01,2013-02-24 04:07:00,
2013-02-23 23:13:00,44.1,43.0,29.84,North,360,0.0,0.0,96,0.00,,OVC008,0.00,VWS V14.01,2013-02-24 04:13:00,
2013-02-23 23:18:00,44.0,42.8,29.84,North,360,0.0,0.0,96,0.00,,OVC008,0.00,VWS V14.01,2013-02-24 04:18:00,
2013-02-23 23:25:00,44.0,42.8,29.84,North,360,0.0,0.0,96,0.00,,OVC008,0.00,VWS V14.01,2013-02-24 04:25:00,
2013-02-23 23:33:00,43.9,42.8,29.83,North,360,0.0,0.0,96,0.00,,OVC008,0.00,VWS V14.01,2013-02-24 04:33:00,
2013-02-23 23:38:00,43.9,42.8,29.84,North,360,0.0,0.0,96,0.00,,OVC008,0.00,VWS V14.01,2013-02-24 04:38:00,
2013-02-23 23:43:00,43.9,42.8,29.84,North,360,0.0,0.0,96,0.00,,OVC008,0.00,VWS V14.01,2013-02-24 04:43:00,
2013-02-23 23:48:00,43.8,42.3,29.84,North,360,0.0,0.0,95,0.00,,OVC008,0.00,VWS V14.01,2013-02-24 04:48:00,
2013-02-23 23:53:00,43.7,42.3,29.84,North,360,0.0,0.0,95,0.00,,OVC008,0.00,VWS V14.01,2013-02-24 04:53:00,
2013-02-23 23:58:00,43.6,42.2,29.84,North,360,0.0,0.0,95,0.00,,OVC008,0.00,VWS V14.01,2013-02-24 04:58:00,